GLO753 SBBR-SBPS
Flight info
| Callsign | GLO753 |
|---|---|
| Flight time | 1h 18m |
| Altitude | 35000 |
| Route | SAVPU DCT EVPIV DCT IVPEG |
| Aircraft | B738/M-SDE2E3FGHIRWXY/LB1 |
Departure
| Time | 2026-04-18 08:58 |
|---|---|
| Airport | Presidente Juscelino Kubitschek International Airport (SBBR) |
Arrival
| Time | 2026-04-18 10:16 |
|---|---|
| Airport | Porto Seguro International Airport (SBPS) |
| Time | Latitude | Longitude | Altitude | Speed | Heading |
|---|---|---|---|---|---|
| 2026-04-18 08:22 | -15.87128 | -47.91906 | 3464 ft | 0 kts | 176° |
| 2026-04-18 08:45 | -15.87107 | -47.91908 | 3463 ft | 4 kts | 165° |
| 2026-04-18 08:45 | -15.87083 | -47.91919 | 3463 ft | 4 kts | 136° |
| 2026-04-18 08:45 | -15.87072 | -47.91939 | 3464 ft | 2 kts | 89° |
| 2026-04-18 08:46 | -15.87072 | -47.91940 | 3464 ft | 4 kts | 88° |
| 2026-04-18 08:49 | -15.87072 | -47.91927 | 3464 ft | 6 kts | 88° |
| 2026-04-18 08:49 | -15.87068 | -47.91854 | 3464 ft | 14 kts | 86° |
| 2026-04-18 08:49 | -15.87061 | -47.91751 | 3462 ft | 14 kts | 86° |
| 2026-04-18 08:49 | -15.87114 | -47.91684 | 3462 ft | 15 kts | 171° |
| 2026-04-18 08:50 | -15.87230 | -47.91674 | 3462 ft | 17 kts | 175° |
| 2026-04-18 08:50 | -15.87350 | -47.91667 | 3463 ft | 18 kts | 177° |
| 2026-04-18 08:50 | -15.87474 | -47.91657 | 3463 ft | 18 kts | 175° |
| 2026-04-18 08:50 | -15.87593 | -47.91649 | 3462 ft | 17 kts | 178° |
| 2026-04-18 08:51 | -15.87708 | -47.91651 | 3461 ft | 16 kts | 204° |
| 2026-04-18 08:51 | -15.87741 | -47.91754 | 3462 ft | 16 kts | 267° |
| 2026-04-18 08:51 | -15.87748 | -47.91865 | 3463 ft | 15 kts | 266° |
| 2026-04-18 08:51 | -15.87755 | -47.91977 | 3467 ft | 16 kts | 266° |
| 2026-04-18 08:52 | -15.87763 | -47.92099 | 3470 ft | 18 kts | 266° |
| 2026-04-18 08:52 | -15.87772 | -47.92231 | 3472 ft | 19 kts | 266° |
| 2026-04-18 08:52 | -15.87781 | -47.92370 | 3473 ft | 20 kts | 265° |
| 2026-04-18 08:52 | -15.87791 | -47.92520 | 3474 ft | 22 kts | 266° |
| 2026-04-18 08:53 | -15.87801 | -47.92683 | 3475 ft | 23 kts | 265° |
| 2026-04-18 08:53 | -15.87811 | -47.92844 | 3477 ft | 22 kts | 266° |
| 2026-04-18 08:53 | -15.87821 | -47.93000 | 3480 ft | 21 kts | 266° |
| 2026-04-18 08:53 | -15.87831 | -47.93153 | 3484 ft | 21 kts | 266° |
| 2026-04-18 08:54 | -15.87841 | -47.93300 | 3502 ft | 20 kts | 265° |
| 2026-04-18 08:54 | -15.87850 | -47.93441 | 3497 ft | 20 kts | 266° |
| 2026-04-18 08:54 | -15.87858 | -47.93580 | 3500 ft | 19 kts | 266° |
| 2026-04-18 08:54 | -15.87867 | -47.93714 | 3505 ft | 18 kts | 266° |
| 2026-04-18 08:55 | -15.87875 | -47.93844 | 3513 ft | 18 kts | 266° |
| 2026-04-18 08:55 | -15.87892 | -47.93967 | 3514 ft | 17 kts | 239° |
| 2026-04-18 08:55 | -15.87963 | -47.93995 | 3509 ft | 0 kts | 177° |
| 2026-04-18 08:56 | -15.87988 | -47.93993 | 3510 ft | 7 kts | 175° |
| 2026-04-18 08:56 | -15.88053 | -47.93982 | 3513 ft | 10 kts | 153° |
| 2026-04-18 08:56 | -15.88063 | -47.93936 | 3509 ft | 0 kts | 86° |
| 2026-04-18 08:57 | -15.88037 | -47.93546 | 3501 ft | 87 kts | 86° |
| 2026-04-18 08:57 | -15.87981 | -47.92698 | 3479 ft | 147 kts | 86° |
| 2026-04-18 08:57 | -15.87900 | -47.91478 | 3585 ft | 184 kts | 86° |
| 2026-04-18 08:58 | -15.87813 | -47.90183 | 4425 ft | 172 kts | 86° |
| 2026-04-18 08:58 | -15.87734 | -47.88912 | 5002 ft | 187 kts | 86° |
| 2026-04-18 08:58 | -15.87642 | -47.87460 | 5240 ft | 214 kts | 86° |
| 2026-04-18 08:58 | -15.87538 | -47.85835 | 5422 ft | 237 kts | 86° |
| 2026-04-18 08:59 | -15.87423 | -47.84031 | 5596 ft | 263 kts | 86° |
| 2026-04-18 08:59 | -15.87296 | -47.82066 | 6010 ft | 280 kts | 86° |
| 2026-04-18 08:59 | -15.87164 | -47.80015 | 6705 ft | 285 kts | 86° |
| 2026-04-18 08:59 | -15.87031 | -47.77952 | 7481 ft | 288 kts | 86° |
| 2026-04-18 09:00 | -15.86895 | -47.75872 | 8255 ft | 289 kts | 86° |
| 2026-04-18 09:00 | -15.86758 | -47.73765 | 8813 ft | 293 kts | 87° |
| 2026-04-18 09:00 | -15.86615 | -47.71651 | 9021 ft | 296 kts | 86° |
| 2026-04-18 09:00 | -15.86436 | -47.69505 | 9024 ft | 298 kts | 85° |
| 2026-04-18 09:01 | -15.86247 | -47.67375 | 9017 ft | 295 kts | 85° |
| 2026-04-18 09:01 | -15.86061 | -47.65258 | 9024 ft | 293 kts | 85° |
| 2026-04-18 09:01 | -15.85879 | -47.63159 | 9016 ft | 291 kts | 85° |
| 2026-04-18 09:01 | -15.85701 | -47.61096 | 9017 ft | 290 kts | 85° |
| 2026-04-18 09:02 | -15.85521 | -47.59007 | 9022 ft | 290 kts | 85° |
| 2026-04-18 09:02 | -15.85425 | -47.56913 | 9003 ft | 291 kts | 96° |
| 2026-04-18 09:02 | -15.86073 | -47.54960 | 9020 ft | 288 kts | 127° |
| 2026-04-18 09:02 | -15.87525 | -47.53553 | 9045 ft | 287 kts | 144° |
| 2026-04-18 09:03 | -15.89169 | -47.52353 | 9031 ft | 290 kts | 145° |
| 2026-04-18 09:03 | -15.90807 | -47.51114 | 9030 ft | 292 kts | 144° |
| 2026-04-18 09:03 | -15.92447 | -47.49849 | 9028 ft | 294 kts | 143° |
| 2026-04-18 09:03 | -15.94089 | -47.48575 | 9025 ft | 295 kts | 143° |
| 2026-04-18 09:04 | -15.95734 | -47.47298 | 9029 ft | 295 kts | 143° |
| 2026-04-18 09:04 | -15.97379 | -47.46023 | 9024 ft | 295 kts | 143° |
| 2026-04-18 09:04 | -15.99022 | -47.44750 | 9025 ft | 294 kts | 143° |
| 2026-04-18 09:04 | -16.00659 | -47.43481 | 9016 ft | 293 kts | 143° |
| 2026-04-18 09:05 | -16.02101 | -47.41996 | 9027 ft | 294 kts | 124° |
| 2026-04-18 09:05 | -16.03120 | -47.40145 | 9574 ft | 296 kts | 118° |
| 2026-04-18 09:05 | -16.04098 | -47.38251 | 10300 ft | 299 kts | 119° |
| 2026-04-18 09:05 | -16.05132 | -47.36289 | 10539 ft | 320 kts | 120° |
| 2026-04-18 09:06 | -16.06234 | -47.34227 | 10717 ft | 340 kts | 120° |
| 2026-04-18 09:06 | -16.07418 | -47.32030 | 11062 ft | 353 kts | 120° |
| 2026-04-18 09:06 | -16.08627 | -47.29793 | 11662 ft | 357 kts | 120° |
| 2026-04-18 09:06 | -16.09848 | -47.27537 | 12314 ft | 359 kts | 120° |
| 2026-04-18 09:07 | -16.11082 | -47.25262 | 12933 ft | 363 kts | 121° |
| 2026-04-18 09:07 | -16.12328 | -47.22963 | 13523 ft | 367 kts | 121° |
| 2026-04-18 09:07 | -16.13587 | -47.20642 | 14082 ft | 371 kts | 121° |
| 2026-04-18 09:07 | -16.14862 | -47.18292 | 14641 ft | 375 kts | 121° |
| 2026-04-18 09:08 | -16.16152 | -47.15914 | 15203 ft | 378 kts | 121° |
| 2026-04-18 09:08 | -16.17449 | -47.13521 | 15731 ft | 382 kts | 121° |
| 2026-04-18 09:08 | -16.18759 | -47.11104 | 16250 ft | 385 kts | 121° |
| 2026-04-18 09:08 | -16.20081 | -47.08664 | 16757 ft | 389 kts | 121° |
| 2026-04-18 09:09 | -16.21416 | -47.06200 | 17250 ft | 393 kts | 121° |
| 2026-04-18 09:09 | -16.22762 | -47.03714 | 17741 ft | 396 kts | 121° |
| 2026-04-18 09:09 | -16.24120 | -47.01202 | 18205 ft | 400 kts | 121° |
| 2026-04-18 09:09 | -16.25487 | -46.98677 | 18665 ft | 403 kts | 121° |
| 2026-04-18 09:10 | -16.26871 | -46.96118 | 19112 ft | 407 kts | 121° |
| 2026-04-18 09:10 | -16.28265 | -46.93539 | 19535 ft | 411 kts | 121° |
| 2026-04-18 09:10 | -16.29675 | -46.90930 | 19944 ft | 414 kts | 121° |
| 2026-04-18 09:10 | -16.31093 | -46.88305 | 20317 ft | 419 kts | 121° |
| 2026-04-18 09:11 | -16.32524 | -46.85654 | 20690 ft | 423 kts | 121° |
| 2026-04-18 09:11 | -16.33971 | -46.82968 | 21125 ft | 425 kts | 121° |
| 2026-04-18 09:11 | -16.35417 | -46.80282 | 21545 ft | 427 kts | 121° |
| 2026-04-18 09:11 | -16.36875 | -46.77572 | 21933 ft | 431 kts | 121° |
| 2026-04-18 09:12 | -16.38342 | -46.74841 | 22294 ft | 434 kts | 121° |
| 2026-04-18 09:12 | -16.39819 | -46.72091 | 22652 ft | 436 kts | 121° |
| 2026-04-18 09:12 | -16.41304 | -46.69324 | 23011 ft | 439 kts | 121° |
| 2026-04-18 09:12 | -16.42780 | -46.66577 | 23349 ft | 441 kts | 121° |
| 2026-04-18 09:13 | -16.44282 | -46.63778 | 23685 ft | 444 kts | 121° |
| 2026-04-18 09:13 | -16.45690 | -46.60910 | 24013 ft | 449 kts | 112° |
| 2026-04-18 09:13 | -16.46312 | -46.57710 | 24260 ft | 456 kts | 91° |
| 2026-04-18 09:13 | -16.46144 | -46.54402 | 24649 ft | 457 kts | 86° |
| 2026-04-18 09:14 | -16.45958 | -46.51099 | 24937 ft | 459 kts | 88° |
| 2026-04-18 09:14 | -16.45826 | -46.47762 | 25188 ft | 463 kts | 89° |
| 2026-04-18 09:14 | -16.45725 | -46.44396 | 25445 ft | 466 kts | 89° |
| 2026-04-18 09:14 | -16.45637 | -46.41015 | 25736 ft | 468 kts | 89° |
| 2026-04-18 09:15 | -16.45553 | -46.37620 | 26046 ft | 469 kts | 89° |
| 2026-04-18 09:15 | -16.45466 | -46.34217 | 26319 ft | 471 kts | 89° |
| 2026-04-18 09:15 | -16.45376 | -46.30794 | 26562 ft | 474 kts | 89° |
| 2026-04-18 09:15 | -16.45282 | -46.27356 | 26823 ft | 476 kts | 89° |
| 2026-04-18 09:16 | -16.45184 | -46.23904 | 27068 ft | 478 kts | 89° |
| 2026-04-18 09:16 | -16.45084 | -46.20436 | 27312 ft | 480 kts | 89° |
| 2026-04-18 09:16 | -16.44984 | -46.16995 | 27543 ft | 482 kts | 89° |
| 2026-04-18 09:16 | -16.44881 | -46.13495 | 27773 ft | 485 kts | 89° |
| 2026-04-18 09:17 | -16.44777 | -46.09981 | 28015 ft | 486 kts | 89° |
| 2026-04-18 09:17 | -16.44672 | -46.06447 | 28228 ft | 488 kts | 89° |
| 2026-04-18 09:17 | -16.44566 | -46.02906 | 28430 ft | 490 kts | 89° |
| 2026-04-18 09:17 | -16.44460 | -45.99349 | 28649 ft | 492 kts | 89° |
| 2026-04-18 09:18 | -16.44352 | -45.95772 | 28876 ft | 494 kts | 89° |
| 2026-04-18 09:18 | -16.44244 | -45.92195 | 29095 ft | 495 kts | 89° |
| 2026-04-18 09:18 | -16.44134 | -45.88594 | 29275 ft | 497 kts | 89° |
| 2026-04-18 09:18 | -16.44024 | -45.84985 | 29448 ft | 499 kts | 89° |
| 2026-04-18 09:19 | -16.43912 | -45.81365 | 29644 ft | 501 kts | 88° |
| 2026-04-18 09:19 | -16.43800 | -45.77741 | 29845 ft | 502 kts | 88° |
| 2026-04-18 09:19 | -16.43686 | -45.74090 | 30013 ft | 504 kts | 88° |
| 2026-04-18 09:19 | -16.43572 | -45.70437 | 30164 ft | 506 kts | 88° |
| 2026-04-18 09:20 | -16.43456 | -45.66766 | 30327 ft | 508 kts | 89° |
| 2026-04-18 09:20 | -16.43339 | -45.63074 | 30515 ft | 509 kts | 89° |
| 2026-04-18 09:20 | -16.43222 | -45.59393 | 30765 ft | 508 kts | 89° |
| 2026-04-18 09:20 | -16.43105 | -45.55723 | 31029 ft | 507 kts | 89° |
| 2026-04-18 09:21 | -16.42987 | -45.52053 | 31262 ft | 507 kts | 89° |
| 2026-04-18 09:21 | -16.42868 | -45.48377 | 31462 ft | 508 kts | 89° |
| 2026-04-18 09:21 | -16.42750 | -45.44745 | 31659 ft | 509 kts | 89° |
| 2026-04-18 09:21 | -16.42629 | -45.41054 | 31867 ft | 509 kts | 89° |
| 2026-04-18 09:22 | -16.42507 | -45.37367 | 32097 ft | 509 kts | 89° |
| 2026-04-18 09:22 | -16.42386 | -45.33686 | 32326 ft | 509 kts | 89° |
| 2026-04-18 09:22 | -16.42264 | -45.30003 | 32570 ft | 509 kts | 89° |
| 2026-04-18 09:22 | -16.42141 | -45.26322 | 32789 ft | 509 kts | 89° |
| 2026-04-18 09:23 | -16.42018 | -45.22638 | 32985 ft | 509 kts | 89° |
| 2026-04-18 09:23 | -16.41894 | -45.18951 | 33191 ft | 509 kts | 89° |
| 2026-04-18 09:23 | -16.41768 | -45.15252 | 33404 ft | 509 kts | 89° |
| 2026-04-18 09:23 | -16.41642 | -45.11566 | 33615 ft | 510 kts | 89° |
| 2026-04-18 09:24 | -16.41515 | -45.07876 | 33827 ft | 510 kts | 89° |
| 2026-04-18 09:24 | -16.41386 | -45.04184 | 34047 ft | 509 kts | 89° |
| 2026-04-18 09:24 | -16.41258 | -45.00499 | 34275 ft | 509 kts | 89° |
| 2026-04-18 09:24 | -16.41131 | -44.96816 | 34502 ft | 509 kts | 89° |
| 2026-04-18 09:25 | -16.41003 | -44.93134 | 34702 ft | 509 kts | 89° |
| 2026-04-18 09:25 | -16.40874 | -44.89452 | 34901 ft | 509 kts | 89° |
| 2026-04-18 09:25 | -16.40744 | -44.85771 | 35004 ft | 510 kts | 89° |
| 2026-04-18 09:25 | -16.40613 | -44.82069 | 34991 ft | 512 kts | 89° |
| 2026-04-18 09:26 | -16.40350 | -44.74732 | 35002 ft | 508 kts | 90° |
| 2026-04-18 09:26 | -16.40085 | -44.67399 | 34994 ft | 505 kts | 90° |
| 2026-04-18 09:27 | -16.39820 | -44.60104 | 35001 ft | 503 kts | 90° |
| 2026-04-18 09:27 | -16.39595 | -44.54011 | 34998 ft | 502 kts | 90° |
| 2026-04-18 09:28 | -16.39326 | -44.46753 | 34999 ft | 502 kts | 90° |
| 2026-04-18 09:28 | -16.39056 | -44.39529 | 35006 ft | 502 kts | 90° |
| 2026-04-18 09:29 | -16.38780 | -44.32244 | 35004 ft | 504 kts | 90° |
| 2026-04-18 09:29 | -16.38502 | -44.24944 | 34998 ft | 505 kts | 90° |
| 2026-04-18 09:30 | -16.38222 | -44.17613 | 34998 ft | 507 kts | 89° |
| 2026-04-18 09:30 | -16.37936 | -44.10274 | 35000 ft | 508 kts | 90° |
| 2026-04-18 09:31 | -16.37648 | -44.02926 | 34986 ft | 508 kts | 89° |
| 2026-04-18 09:31 | -16.37358 | -43.95573 | 34989 ft | 508 kts | 89° |
| 2026-04-18 09:32 | -16.37064 | -43.88224 | 34984 ft | 508 kts | 89° |
| 2026-04-18 09:32 | -16.36769 | -43.80879 | 34981 ft | 507 kts | 89° |
| 2026-04-18 09:33 | -16.36472 | -43.73557 | 35001 ft | 506 kts | 89° |
| 2026-04-18 09:33 | -16.36174 | -43.66287 | 34989 ft | 506 kts | 89° |
| 2026-04-18 09:34 | -16.35873 | -43.58974 | 34989 ft | 505 kts | 89° |
| 2026-04-18 09:34 | -16.35568 | -43.51651 | 34991 ft | 505 kts | 89° |
| 2026-04-18 09:35 | -16.35263 | -43.44342 | 34989 ft | 505 kts | 89° |
| 2026-04-18 09:35 | -16.34953 | -43.37022 | 34988 ft | 505 kts | 89° |
| 2026-04-18 09:36 | -16.34643 | -43.29745 | 34999 ft | 506 kts | 89° |
| 2026-04-18 09:36 | -16.34328 | -43.22430 | 34991 ft | 506 kts | 89° |
| 2026-04-18 09:37 | -16.34010 | -43.15106 | 34995 ft | 506 kts | 89° |
| 2026-04-18 09:37 | -16.33692 | -43.07777 | 34981 ft | 507 kts | 89° |
| 2026-04-18 09:38 | -16.33368 | -43.00438 | 34992 ft | 507 kts | 89° |
| 2026-04-18 09:38 | -16.33042 | -42.93101 | 34986 ft | 507 kts | 89° |
| 2026-04-18 09:39 | -16.32716 | -42.85762 | 34989 ft | 507 kts | 89° |
| 2026-04-18 09:39 | -16.33002 | -42.78474 | 35009 ft | 503 kts | 100° |
| 2026-04-18 09:40 | -16.34040 | -42.71277 | 34993 ft | 502 kts | 101° |
| 2026-04-18 09:40 | -16.35113 | -42.64080 | 34991 ft | 502 kts | 101° |
| 2026-04-18 09:41 | -16.36111 | -42.56882 | 34985 ft | 503 kts | 100° |
| 2026-04-18 09:41 | -16.37066 | -42.49673 | 34996 ft | 502 kts | 100° |
| 2026-04-18 09:42 | -16.38010 | -42.42463 | 34984 ft | 502 kts | 100° |
| 2026-04-18 09:42 | -16.38948 | -42.35302 | 34984 ft | 502 kts | 100° |
| 2026-04-18 09:43 | -16.39892 | -42.28105 | 34973 ft | 502 kts | 100° |
| 2026-04-18 09:43 | -16.40834 | -42.20907 | 34974 ft | 501 kts | 100° |
| 2026-04-18 09:44 | -16.41773 | -42.13717 | 34968 ft | 501 kts | 100° |
| 2026-04-18 09:44 | -16.42708 | -42.06525 | 34967 ft | 500 kts | 100° |
| 2026-04-18 09:45 | -16.43638 | -41.99354 | 34968 ft | 500 kts | 100° |
| 2026-04-18 09:45 | -16.44566 | -41.92180 | 34978 ft | 499 kts | 99° |
| 2026-04-18 09:46 | -16.45487 | -41.85053 | 34960 ft | 499 kts | 99° |
| 2026-04-18 09:46 | -16.46409 | -41.77897 | 34965 ft | 498 kts | 99° |
| 2026-04-18 09:47 | -16.47327 | -41.70740 | 34951 ft | 499 kts | 99° |
| 2026-04-18 09:47 | -16.48246 | -41.63566 | 34959 ft | 499 kts | 99° |
| 2026-04-18 09:48 | -16.49161 | -41.56396 | 34958 ft | 499 kts | 99° |
| 2026-04-18 09:48 | -16.50075 | -41.49210 | 34948 ft | 500 kts | 99° |
| 2026-04-18 09:49 | -16.50535 | -41.45599 | 34484 ft | 507 kts | 99° |
| 2026-04-18 09:49 | -16.50999 | -41.41951 | 33885 ft | 507 kts | 99° |
| 2026-04-18 09:49 | -16.51458 | -41.38326 | 33428 ft | 502 kts | 99° |
| 2026-04-18 09:49 | -16.51911 | -41.34738 | 32961 ft | 498 kts | 99° |
| 2026-04-18 09:50 | -16.52361 | -41.31171 | 32507 ft | 493 kts | 99° |
| 2026-04-18 09:50 | -16.52804 | -41.27649 | 32050 ft | 489 kts | 99° |
| 2026-04-18 09:50 | -16.53245 | -41.24148 | 31593 ft | 485 kts | 98° |
| 2026-04-18 09:50 | -16.53683 | -41.20668 | 31140 ft | 482 kts | 98° |
| 2026-04-18 09:51 | -16.54116 | -41.17223 | 30686 ft | 478 kts | 98° |
| 2026-04-18 09:51 | -16.54545 | -41.13800 | 30232 ft | 475 kts | 98° |
| 2026-04-18 09:51 | -16.54971 | -41.10403 | 29789 ft | 471 kts | 98° |
| 2026-04-18 09:51 | -16.55393 | -41.07032 | 29332 ft | 467 kts | 98° |
| 2026-04-18 09:52 | -16.55811 | -41.03693 | 28874 ft | 463 kts | 98° |
| 2026-04-18 09:52 | -16.56225 | -41.00374 | 28421 ft | 460 kts | 98° |
| 2026-04-18 09:52 | -16.56635 | -40.97078 | 27971 ft | 456 kts | 98° |
| 2026-04-18 09:52 | -16.57042 | -40.93811 | 27511 ft | 453 kts | 98° |
| 2026-04-18 09:53 | -16.57446 | -40.90568 | 27063 ft | 449 kts | 98° |
| 2026-04-18 09:53 | -16.57845 | -40.87351 | 26617 ft | 446 kts | 98° |
| 2026-04-18 09:53 | -16.58237 | -40.84203 | 26186 ft | 442 kts | 98° |
| 2026-04-18 09:53 | -16.58629 | -40.81042 | 25741 ft | 438 kts | 98° |
| 2026-04-18 09:54 | -16.59017 | -40.77902 | 25299 ft | 435 kts | 98° |
| 2026-04-18 09:54 | -16.59402 | -40.74780 | 24859 ft | 432 kts | 98° |
| 2026-04-18 09:54 | -16.59782 | -40.71697 | 24430 ft | 428 kts | 98° |
| 2026-04-18 09:54 | -16.60160 | -40.68628 | 23995 ft | 425 kts | 97° |
| 2026-04-18 09:55 | -16.60535 | -40.65578 | 23569 ft | 422 kts | 97° |
| 2026-04-18 09:55 | -16.60907 | -40.62555 | 23134 ft | 419 kts | 97° |
| 2026-04-18 09:55 | -16.61275 | -40.59555 | 22712 ft | 415 kts | 97° |
| 2026-04-18 09:55 | -16.61641 | -40.56579 | 22291 ft | 412 kts | 98° |
| 2026-04-18 09:56 | -16.62002 | -40.53628 | 21872 ft | 409 kts | 98° |
| 2026-04-18 09:56 | -16.62360 | -40.50695 | 21456 ft | 406 kts | 98° |
| 2026-04-18 09:56 | -16.62717 | -40.47778 | 21035 ft | 403 kts | 98° |
| 2026-04-18 09:56 | -16.63069 | -40.44887 | 20615 ft | 400 kts | 98° |
| 2026-04-18 09:57 | -16.63419 | -40.42020 | 20210 ft | 397 kts | 98° |
| 2026-04-18 09:57 | -16.63766 | -40.39173 | 19793 ft | 394 kts | 98° |
| 2026-04-18 09:57 | -16.64110 | -40.36347 | 19396 ft | 391 kts | 98° |
| 2026-04-18 09:57 | -16.64452 | -40.33536 | 18988 ft | 388 kts | 98° |
| 2026-04-18 09:58 | -16.64789 | -40.30759 | 18594 ft | 386 kts | 98° |
| 2026-04-18 09:58 | -16.65124 | -40.27987 | 18194 ft | 383 kts | 98° |
| 2026-04-18 09:58 | -16.65452 | -40.25277 | 17796 ft | 380 kts | 98° |
| 2026-04-18 09:58 | -16.65782 | -40.22550 | 17410 ft | 378 kts | 98° |
| 2026-04-18 09:59 | -16.66108 | -40.19842 | 17003 ft | 375 kts | 98° |
| 2026-04-18 09:59 | -16.66433 | -40.17153 | 16620 ft | 372 kts | 98° |
| 2026-04-18 09:59 | -16.66756 | -40.14482 | 16228 ft | 370 kts | 98° |
| 2026-04-18 10:00 | -16.67394 | -40.09183 | 15451 ft | 366 kts | 98° |
| 2026-04-18 10:00 | -16.67710 | -40.06552 | 15054 ft | 364 kts | 98° |
| 2026-04-18 10:00 | -16.68022 | -40.03950 | 14683 ft | 361 kts | 98° |
| 2026-04-18 10:00 | -16.68332 | -40.01358 | 14301 ft | 359 kts | 98° |
| 2026-04-18 10:01 | -16.68642 | -39.98780 | 13921 ft | 357 kts | 98° |
| 2026-04-18 10:01 | -16.68949 | -39.96215 | 13541 ft | 355 kts | 98° |
| 2026-04-18 10:01 | -16.69254 | -39.93663 | 13178 ft | 354 kts | 98° |
| 2026-04-18 10:01 | -16.69558 | -39.91121 | 12770 ft | 352 kts | 97° |
| 2026-04-18 10:02 | -16.69859 | -39.88588 | 12396 ft | 350 kts | 97° |
| 2026-04-18 10:02 | -16.70158 | -39.86082 | 12021 ft | 348 kts | 97° |
| 2026-04-18 10:02 | -16.70456 | -39.83583 | 11657 ft | 345 kts | 97° |
| 2026-04-18 10:02 | -16.70750 | -39.81107 | 11275 ft | 343 kts | 97° |
| 2026-04-18 10:03 | -16.71042 | -39.78649 | 10907 ft | 340 kts | 97° |
| 2026-04-18 10:03 | -16.71328 | -39.76243 | 10549 ft | 338 kts | 97° |
| 2026-04-18 10:03 | -16.71613 | -39.73835 | 10341 ft | 330 kts | 97° |
| 2026-04-18 10:03 | -16.71890 | -39.71492 | 10179 ft | 321 kts | 97° |
| 2026-04-18 10:04 | -16.72160 | -39.69212 | 10038 ft | 312 kts | 97° |
| 2026-04-18 10:04 | -16.72425 | -39.66966 | 9908 ft | 303 kts | 97° |
| 2026-04-18 10:04 | -16.72678 | -39.64818 | 9742 ft | 296 kts | 98° |
| 2026-04-18 10:04 | -16.72929 | -39.62700 | 9393 ft | 297 kts | 98° |
| 2026-04-18 10:05 | -16.73181 | -39.60563 | 9081 ft | 296 kts | 98° |
| 2026-04-18 10:05 | -16.73431 | -39.58437 | 8782 ft | 294 kts | 98° |
| 2026-04-18 10:05 | -16.73679 | -39.56326 | 8489 ft | 292 kts | 97° |
| 2026-04-18 10:05 | -16.73594 | -39.54222 | 8144 ft | 292 kts | 74° |
| 2026-04-18 10:06 | -16.72576 | -39.52441 | 7914 ft | 286 kts | 44° |
| 2026-04-18 10:06 | -16.71019 | -39.51174 | 7663 ft | 283 kts | 35° |
| 2026-04-18 10:06 | -16.69422 | -39.49984 | 7357 ft | 282 kts | 36° |
| 2026-04-18 10:06 | -16.67856 | -39.48761 | 7064 ft | 281 kts | 37° |
| 2026-04-18 10:07 | -16.66306 | -39.47530 | 6773 ft | 280 kts | 37° |
| 2026-04-18 10:07 | -16.64761 | -39.46302 | 6487 ft | 278 kts | 37° |
| 2026-04-18 10:07 | -16.63229 | -39.45085 | 6241 ft | 275 kts | 37° |
| 2026-04-18 10:07 | -16.61708 | -39.43878 | 5988 ft | 273 kts | 37° |
| 2026-04-18 10:08 | -16.60219 | -39.42700 | 5848 ft | 264 kts | 37° |
| 2026-04-18 10:08 | -16.58777 | -39.41557 | 5724 ft | 257 kts | 37° |
| 2026-04-18 10:08 | -16.57376 | -39.40450 | 5617 ft | 248 kts | 37° |
| 2026-04-18 10:08 | -16.56026 | -39.39385 | 5509 ft | 240 kts | 37° |
| 2026-04-18 10:09 | -16.54714 | -39.38347 | 5350 ft | 235 kts | 37° |
| 2026-04-18 10:09 | -16.53435 | -39.37338 | 5163 ft | 223 kts | 37° |
| 2026-04-18 10:09 | -16.52242 | -39.36396 | 4925 ft | 214 kts | 37° |
| 2026-04-18 10:09 | -16.51147 | -39.35372 | 4665 ft | 211 kts | 54° |
| 2026-04-18 10:10 | -16.50666 | -39.33991 | 4496 ft | 198 kts | 85° |
| 2026-04-18 10:10 | -16.50547 | -39.32592 | 4298 ft | 192 kts | 79° |
| 2026-04-18 10:10 | -16.50168 | -39.31279 | 4092 ft | 185 kts | 70° |
| 2026-04-18 10:10 | -16.49778 | -39.30014 | 3919 ft | 180 kts | 73° |
| 2026-04-18 10:11 | -16.49444 | -39.28794 | 3696 ft | 169 kts | 74° |
| 2026-04-18 10:11 | -16.49139 | -39.27651 | 3562 ft | 160 kts | 74° |
| 2026-04-18 10:11 | -16.48820 | -39.26554 | 3372 ft | 156 kts | 73° |
| 2026-04-18 10:11 | -16.48548 | -39.25444 | 3218 ft | 160 kts | 74° |
| 2026-04-18 10:12 | -16.48249 | -39.24340 | 3085 ft | 154 kts | 74° |
| 2026-04-18 10:12 | -16.47950 | -39.23261 | 2949 ft | 156 kts | 74° |
| 2026-04-18 10:12 | -16.47649 | -39.22160 | 2768 ft | 159 kts | 75° |
| 2026-04-18 10:12 | -16.47345 | -39.21063 | 2567 ft | 157 kts | 73° |
| 2026-04-18 10:13 | -16.47056 | -39.19970 | 2367 ft | 157 kts | 74° |
| 2026-04-18 10:13 | -16.46760 | -39.18870 | 2156 ft | 158 kts | 74° |
| 2026-04-18 10:13 | -16.46564 | -39.18138 | 2024 ft | 158 kts | 74° |
| 2026-04-18 10:13 | -16.46268 | -39.17040 | 1813 ft | 157 kts | 74° |
| 2026-04-18 10:14 | -16.45970 | -39.15940 | 1606 ft | 158 kts | 74° |
| 2026-04-18 10:14 | -16.45672 | -39.14836 | 1398 ft | 158 kts | 74° |
| 2026-04-18 10:14 | -16.45374 | -39.13734 | 1177 ft | 157 kts | 74° |
| 2026-04-18 10:14 | -16.45079 | -39.12641 | 968 ft | 156 kts | 74° |
| 2026-04-18 10:15 | -16.44785 | -39.11554 | 769 ft | 156 kts | 74° |
| 2026-04-18 10:15 | -16.44491 | -39.10464 | 566 ft | 157 kts | 74° |
| 2026-04-18 10:15 | -16.44194 | -39.09355 | 333 ft | 160 kts | 75° |
| 2026-04-18 10:15 | -16.43902 | -39.08254 | 164 ft | 146 kts | 72° |
| 2026-04-18 10:16 | -16.43698 | -39.07489 | 162 ft | 57 kts | 76° |
| 2026-04-18 10:16 | -16.43647 | -39.07230 | 159 ft | 20 kts | 82° |
| 2026-04-18 10:16 | -16.43622 | -39.07267 | 160 ft | 15 kts | 256° |
| 2026-04-18 10:16 | -16.43668 | -39.07415 | 162 ft | 28 kts | 252° |
| 2026-04-18 10:17 | -16.43729 | -39.07623 | 161 ft | 29 kts | 255° |
| 2026-04-18 10:17 | -16.43781 | -39.07823 | 160 ft | 28 kts | 255° |
| 2026-04-18 10:17 | -16.43831 | -39.08011 | 158 ft | 25 kts | 255° |
| 2026-04-18 10:17 | -16.43886 | -39.08132 | 159 ft | 16 kts | 205° |
| 2026-04-18 10:18 | -16.43974 | -39.08120 | 159 ft | 11 kts | 164° |
| 2026-04-18 10:18 | -16.44002 | -39.08112 | 159 ft | 3 kts | 164° |
| 2026-04-18 10:18 | -16.44021 | -39.08106 | 159 ft | 4 kts | 164° |
| 2026-04-18 10:18 | -16.44052 | -39.08097 | 159 ft | 4 kts | 164° |
| 2026-04-18 10:19 | -16.44061 | -39.08095 | 159 ft | 0 kts | 164° |